sensor_id;sensor_type;location;lat;lon;timestamp;P1;durP1;ratioP1;P2;durP2;ratioP2
22606;SDS011;11470;20.968;105.834;2023-04-15T00:01:24;63.15;;;34.63;;
22606;SDS011;11470;20.968;105.834;2023-04-15T00:06:30;52.83;;;30.80;;
22606;SDS011;11470;20.968;105.834;2023-04-15T00:11:36;54.63;;;31.23;;
22606;SDS011;11470;20.968;105.834;2023-04-15T00:16:41;51.90;;;31.08;;
22606;SDS011;11470;20.968;105.834;2023-04-15T00:21:47;42.65;;;26.38;;
22606;SDS011;11470;20.968;105.834;2023-04-15T00:26:52;53.50;;;29.58;;
22606;SDS011;11470;20.968;105.834;2023-04-15T00:31:58;47.33;;;30.20;;
22606;SDS011;11470;20.968;105.834;2023-04-15T00:37:04;55.65;;;31.80;;
22606;SDS011;11470;20.968;105.834;2023-04-15T00:42:10;50.85;;;30.65;;
22606;SDS011;11470;20.968;105.834;2023-04-15T00:47:16;77.03;;;38.05;;
22606;SDS011;11470;20.968;105.834;2023-04-15T00:52:23;67.25;;;33.85;;
22606;SDS011;11470;20.968;105.834;2023-04-15T00:57:28;61.88;;;32.50;;
22606;SDS011;11470;20.968;105.834;2023-04-15T01:02:34;72.30;;;37.60;;
22606;SDS011;11470;20.968;105.834;2023-04-15T01:07:40;57.05;;;35.38;;
22606;SDS011;11470;20.968;105.834;2023-04-15T01:12:46;80.20;;;46.77;;
22606;SDS011;11470;20.968;105.834;2023-04-15T01:22:57;73.35;;;38.42;;
22606;SDS011;11470;20.968;105.834;2023-04-15T01:28:03;74.05;;;40.08;;
22606;SDS011;11470;20.968;105.834;2023-04-15T01:33:09;65.70;;;36.80;;
22606;SDS011;11470;20.968;105.834;2023-04-15T01:38:15;59.97;;;36.17;;
22606;SDS011;11470;20.968;105.834;2023-04-15T01:43:21;66.90;;;40.08;;
22606;SDS011;11470;20.968;105.834;2023-04-15T01:48:26;51.58;;;32.70;;
22606;SDS011;11470;20.968;105.834;2023-04-15T01:53:32;91.18;;;51.20;;
22606;SDS011;11470;20.968;105.834;2023-04-15T01:58:38;107.13;;;62.25;;
22606;SDS011;11470;20.968;105.834;2023-04-15T02:03:45;122.57;;;69.35;;
22606;SDS011;11470;20.968;105.834;2023-04-15T02:08:52;114.75;;;60.55;;
22606;SDS011;11470;20.968;105.834;2023-04-15T02:13:58;105.88;;;59.90;;
22606;SDS011;11470;20.968;105.834;2023-04-15T02:19:03;123.18;;;61.83;;
22606;SDS011;11470;20.968;105.834;2023-04-15T02:24:11;116.03;;;58.08;;
22606;SDS011;11470;20.968;105.834;2023-04-15T02:29:17;110.20;;;53.55;;
22606;SDS011;11470;20.968;105.834;2023-04-15T02:34:24;114.88;;;54.80;;
22606;SDS011;11470;20.968;105.834;2023-04-15T02:39:31;118.03;;;54.50;;
22606;SDS011;11470;20.968;105.834;2023-04-15T02:44:37;94.45;;;47.55;;
22606;SDS011;11470;20.968;105.834;2023-04-15T02:49:43;88.18;;;46.05;;
22606;SDS011;11470;20.968;105.834;2023-04-15T02:54:50;92.25;;;47.47;;
22606;SDS011;11470;20.968;105.834;2023-04-15T02:59:58;105.65;;;53.70;;
22606;SDS011;11470;20.968;105.834;2023-04-15T03:05:04;117.55;;;53.80;;
22606;SDS011;11470;20.968;105.834;2023-04-15T03:10:23;100.43;;;50.05;;
22606;SDS011;11470;20.968;105.834;2023-04-15T03:20:36;118.13;;;55.05;;
22606;SDS011;11470;20.968;105.834;2023-04-15T03:25:47;105.35;;;51.50;;
22606;SDS011;11470;20.968;105.834;2023-04-15T03:30:53;102.05;;;51.67;;
22606;SDS011;11470;20.968;105.834;2023-04-15T03:36:00;103.20;;;52.05;;
22606;SDS011;11470;20.968;105.834;2023-04-15T03:41:05;101.23;;;51.57;;
22606;SDS011;11470;20.968;105.834;2023-04-15T03:46:11;90.80;;;44.27;;
22606;SDS011;11470;20.968;105.834;2023-04-15T03:51:17;87.90;;;44.53;;
22606;SDS011;11470;20.968;105.834;2023-04-15T03:56:23;86.25;;;45.85;;
22606;SDS011;11470;20.968;105.834;2023-04-15T04:01:30;89.75;;;46.92;;
22606;SDS011;11470;20.968;105.834;2023-04-15T04:06:35;88.53;;;46.80;;
22606;SDS011;11470;20.968;105.834;2023-04-15T04:11:41;82.13;;;45.05;;
22606;SDS011;11470;20.968;105.834;2023-04-15T04:16:48;86.60;;;47.88;;
22606;SDS011;11470;20.968;105.834;2023-04-15T04:26:59;83.95;;;43.83;;
22606;SDS011;11470;20.968;105.834;2023-04-15T04:32:05;88.35;;;45.47;;
22606;SDS011;11470;20.968;105.834;2023-04-15T04:37:11;87.15;;;46.67;;
22606;SDS011;11470;20.968;105.834;2023-04-15T04:42:17;96.32;;;49.80;;
22606;SDS011;11470;20.968;105.834;2023-04-15T04:47:23;108.43;;;54.88;;
22606;SDS011;11470;20.968;105.834;2023-04-15T04:52:29;98.72;;;52.80;;
22606;SDS011;11470;20.968;105.834;2023-04-15T04:57:34;118.65;;;60.67;;
22606;SDS011;11470;20.968;105.834;2023-04-15T05:02:42;115.18;;;59.88;;
22606;SDS011;11470;20.968;105.834;2023-04-15T05:07:48;107.57;;;56.67;;
22606;SDS011;11470;20.968;105.834;2023-04-15T05:17:59;98.28;;;51.05;;
22606;SDS011;11470;20.968;105.834;2023-04-15T05:23:05;93.43;;;46.90;;
22606;SDS011;11470;20.968;105.834;2023-04-15T05:33:16;105.95;;;59.55;;
22606;SDS011;11470;20.968;105.834;2023-04-15T05:38:21;115.68;;;62.60;;
22606;SDS011;11470;20.968;105.834;2023-04-15T05:43:27;118.97;;;64.18;;
22606;SDS011;11470;20.968;105.834;2023-04-15T05:48:35;109.25;;;65.15;;
22606;SDS011;11470;20.968;105.834;2023-04-15T05:53:41;136.00;;;72.70;;
22606;SDS011;11470;20.968;105.834;2023-04-15T05:58:50;110.75;;;58.72;;
22606;SDS011;11470;20.968;105.834;2023-04-15T06:03:56;111.70;;;64.20;;
22606;SDS011;11470;20.968;105.834;2023-04-15T06:09:02;105.32;;;61.33;;
22606;SDS011;11470;20.968;105.834;2023-04-15T06:14:08;108.70;;;61.47;;
22606;SDS011;11470;20.968;105.834;2023-04-15T06:19:14;111.30;;;62.28;;
22606;SDS011;11470;20.968;105.834;2023-04-15T06:24:21;117.32;;;64.95;;
22606;SDS011;11470;20.968;105.834;2023-04-15T06:29:26;99.22;;;52.72;;
22606;SDS011;11470;20.968;105.834;2023-04-15T06:39:37;105.10;;;60.55;;
22606;SDS011;11470;20.968;105.834;2023-04-15T06:44:43;82.00;;;48.58;;
22606;SDS011;11470;20.968;105.834;2023-04-15T06:49:50;123.03;;;73.20;;
22606;SDS011;11470;20.968;105.834;2023-04-15T06:54:55;97.95;;;53.92;;
22606;SDS011;11470;20.968;105.834;2023-04-15T07:00:05;93.28;;;56.63;;
22606;SDS011;11470;20.968;105.834;2023-04-15T07:05:11;96.60;;;55.45;;
22606;SDS011;11470;20.968;105.834;2023-04-15T07:10:17;80.82;;;48.30;;
22606;SDS011;11470;20.968;105.834;2023-04-15T07:15:25;78.10;;;43.97;;
22606;SDS011;11470;20.968;105.834;2023-04-15T07:20:31;72.80;;;42.83;;
22606;SDS011;11470;20.968;105.834;2023-04-15T07:25:40;69.50;;;41.08;;
22606;SDS011;11470;20.968;105.834;2023-04-15T07:30:47;67.47;;;39.13;;
22606;SDS011;11470;20.968;105.834;2023-04-15T07:35:56;58.60;;;31.70;;
22606;SDS011;11470;20.968;105.834;2023-04-15T07:41:03;60.85;;;37.38;;
22606;SDS011;11470;20.968;105.834;2023-04-15T07:46:09;53.08;;;32.75;;
22606;SDS011;11470;20.968;105.834;2023-04-15T07:51:15;68.70;;;40.92;;
22606;SDS011;11470;20.968;105.834;2023-04-15T08:01:26;67.70;;;39.00;;
22606;SDS011;11470;20.968;105.834;2023-04-15T08:06:32;64.65;;;39.95;;
22606;SDS011;11470;20.968;105.834;2023-04-15T08:11:37;64.70;;;40.63;;
22606;SDS011;11470;20.968;105.834;2023-04-15T08:16:43;63.50;;;39.65;;
22606;SDS011;11470;20.968;105.834;2023-04-15T08:21:49;59.30;;;37.08;;
22606;SDS011;11470;20.968;105.834;2023-04-15T08:26:56;51.75;;;34.20;;
22606;SDS011;11470;20.968;105.834;2023-04-15T08:32:04;43.58;;;29.33;;
22606;SDS011;11470;20.968;105.834;2023-04-15T08:37:13;49.88;;;29.63;;
22606;SDS011;11470;20.968;105.834;2023-04-15T08:42:22;42.33;;;27.50;;
22606;SDS011;11470;20.968;105.834;2023-04-15T08:47:34;33.17;;;23.70;;
22606;SDS011;11470;20.968;105.834;2023-04-15T08:52:45;44.30;;;28.17;;
22606;SDS011;11470;20.968;105.834;2023-04-15T08:57:51;38.60;;;24.55;;
22606;SDS011;11470;20.968;105.834;2023-04-15T09:02:57;35.17;;;23.55;;
22606;SDS011;11470;20.968;105.834;2023-04-15T09:08:04;32.47;;;23.60;;
22606;SDS011;11470;20.968;105.834;2023-04-15T09:13:10;39.45;;;27.02;;
22606;SDS011;11470;20.968;105.834;2023-04-15T09:18:27;29.52;;;19.77;;
22606;SDS011;11470;20.968;105.834;2023-04-15T09:23:34;53.10;;;34.97;;
22606;SDS011;11470;20.968;105.834;2023-04-15T09:28:44;54.78;;;36.28;;
22606;SDS011;11470;20.968;105.834;2023-04-15T09:33:53;66.70;;;41.95;;
22606;SDS011;11470;20.968;105.834;2023-04-15T09:39:03;61.15;;;39.28;;
22606;SDS011;11470;20.968;105.834;2023-04-15T09:49:30;68.72;;;36.00;;
22606;SDS011;11470;20.968;105.834;2023-04-15T09:54:36;90.85;;;52.55;;
22606;SDS011;11470;20.968;105.834;2023-04-15T09:59:42;92.40;;;58.13;;
22606;SDS011;11470;20.968;105.834;2023-04-15T10:04:47;89.03;;;51.90;;
22606;SDS011;11470;20.968;105.834;2023-04-15T10:09:55;89.85;;;55.45;;
22606;SDS011;11470;20.968;105.834;2023-04-15T10:15:03;91.63;;;53.92;;
22606;SDS011;11470;20.968;105.834;2023-04-15T10:20:10;91.05;;;51.60;;
22606;SDS011;11470;20.968;105.834;2023-04-15T10:25:17;96.00;;;53.50;;
22606;SDS011;11470;20.968;105.834;2023-04-15T10:30:23;103.93;;;61.15;;
22606;SDS011;11470;20.968;105.834;2023-04-15T10:35:29;105.35;;;61.53;;
22606;SDS011;11470;20.968;105.834;2023-04-15T10:40:37;95.80;;;56.78;;
22606;SDS011;11470;20.968;105.834;2023-04-15T10:45:43;98.40;;;58.95;;
22606;SDS011;11470;20.968;105.834;2023-04-15T10:50:56;97.35;;;56.78;;
22606;SDS011;11470;20.968;105.834;2023-04-15T10:56:05;92.50;;;56.73;;
22606;SDS011;11470;20.968;105.834;2023-04-15T11:01:11;102.03;;;57.95;;
22606;SDS011;11470;20.968;105.834;2023-04-15T11:06:17;90.80;;;52.20;;
22606;SDS011;11470;20.968;105.834;2023-04-15T11:11:33;90.97;;;48.92;;
22606;SDS011;11470;20.968;105.834;2023-04-15T11:17:05;98.47;;;55.53;;
22606;SDS011;11470;20.968;105.834;2023-04-15T11:22:14;95.72;;;56.60;;
22606;SDS011;11470;20.968;105.834;2023-04-15T11:27:21;110.90;;;65.32;;
22606;SDS011;11470;20.968;105.834;2023-04-15T11:32:26;111.93;;;58.92;;
22606;SDS011;11470;20.968;105.834;2023-04-15T11:37:32;104.75;;;58.58;;
22606;SDS011;11470;20.968;105.834;2023-04-15T11:42:38;104.82;;;59.70;;
22606;SDS011;11470;20.968;105.834;2023-04-15T11:47:51;100.00;;;57.03;;
22606;SDS011;11470;20.968;105.834;2023-04-15T11:53:17;121.83;;;70.10;;
22606;SDS011;11470;20.968;105.834;2023-04-15T11:58:23;100.53;;;61.07;;
22606;SDS011;11470;20.968;105.834;2023-04-15T12:03:30;104.60;;;57.25;;
22606;SDS011;11470;20.968;105.834;2023-04-15T12:09:02;111.05;;;63.28;;
22606;SDS011;11470;20.968;105.834;2023-04-15T12:14:12;114.63;;;64.82;;
22606;SDS011;11470;20.968;105.834;2023-04-15T12:19:35;120.95;;;69.07;;
22606;SDS011;11470;20.968;105.834;2023-04-15T12:24:53;122.13;;;72.50;;
22606;SDS011;11470;20.968;105.834;2023-04-15T12:30:06;123.57;;;74.70;;
22606;SDS011;11470;20.968;105.834;2023-04-15T12:35:11;120.30;;;73.82;;
22606;SDS011;11470;20.968;105.834;2023-04-15T12:40:20;129.93;;;70.80;;
22606;SDS011;11470;20.968;105.834;2023-04-15T12:45:31;114.20;;;69.32;;
22606;SDS011;11470;20.968;105.834;2023-04-15T12:50:38;127.40;;;73.05;;
22606;SDS011;11470;20.968;105.834;2023-04-15T12:55:51;124.22;;;72.18;;
22606;SDS011;11470;20.968;105.834;2023-04-15T13:01:37;121.97;;;71.07;;
22606;SDS011;11470;20.968;105.834;2023-04-15T13:06:46;109.25;;;65.40;;
22606;SDS011;11470;20.968;105.834;2023-04-15T13:11:52;115.47;;;73.55;;
22606;SDS011;11470;20.968;105.834;2023-04-15T13:17:03;119.60;;;72.15;;
22606;SDS011;11470;20.968;105.834;2023-04-15T13:22:13;119.78;;;71.80;;
22606;SDS011;11470;20.968;105.834;2023-04-15T13:27:18;103.90;;;64.90;;
22606;SDS011;11470;20.968;105.834;2023-04-15T13:32:25;97.10;;;61.78;;
22606;SDS011;11470;20.968;105.834;2023-04-15T13:42:36;109.90;;;65.88;;
22606;SDS011;11470;20.968;105.834;2023-04-15T13:47:42;109.53;;;63.50;;
22606;SDS011;11470;20.968;105.834;2023-04-15T13:52:47;105.85;;;61.97;;
22606;SDS011;11470;20.968;105.834;2023-04-15T14:03:45;108.10;;;63.40;;
22606;SDS011;11470;20.968;105.834;2023-04-15T14:08:57;107.82;;;63.33;;
22606;SDS011;11470;20.968;105.834;2023-04-15T14:14:02;105.57;;;62.63;;
22606;SDS011;11470;20.968;105.834;2023-04-15T14:19:08;111.78;;;66.38;;
22606;SDS011;11470;20.968;105.834;2023-04-15T14:24:16;102.25;;;59.08;;
22606;SDS011;11470;20.968;105.834;2023-04-15T14:29:26;114.95;;;65.15;;
22606;SDS011;11470;20.968;105.834;2023-04-15T14:34:53;106.55;;;61.22;;
22606;SDS011;11470;20.968;105.834;2023-04-15T14:40:06;110.63;;;66.15;;
22606;SDS011;11470;20.968;105.834;2023-04-15T14:45:14;107.22;;;64.07;;
22606;SDS011;11470;20.968;105.834;2023-04-15T14:50:20;116.15;;;65.57;;
22606;SDS011;11470;20.968;105.834;2023-04-15T14:55:27;112.78;;;66.93;;
22606;SDS011;11470;20.968;105.834;2023-04-15T15:00:32;107.30;;;63.70;;
22606;SDS011;11470;20.968;105.834;2023-04-15T15:05:43;98.50;;;54.78;;
22606;SDS011;11470;20.968;105.834;2023-04-15T15:10:50;110.22;;;64.93;;
22606;SDS011;11470;20.968;105.834;2023-04-15T15:16:05;108.95;;;57.38;;
22606;SDS011;11470;20.968;105.834;2023-04-15T15:21:15;98.97;;;59.95;;
22606;SDS011;11470;20.968;105.834;2023-04-15T15:26:22;99.13;;;59.72;;
22606;SDS011;11470;20.968;105.834;2023-04-15T15:36:36;103.03;;;60.95;;
22606;SDS011;11470;20.968;105.834;2023-04-15T15:41:45;103.72;;;62.20;;
22606;SDS011;11470;20.968;105.834;2023-04-15T15:46:51;94.35;;;60.53;;
22606;SDS011;11470;20.968;105.834;2023-04-15T15:51:57;101.65;;;62.58;;
22606;SDS011;11470;20.968;105.834;2023-04-15T15:57:02;103.88;;;61.88;;
22606;SDS011;11470;20.968;105.834;2023-04-15T16:02:12;99.47;;;61.08;;
22606;SDS011;11470;20.968;105.834;2023-04-15T16:07:18;105.78;;;61.10;;
22606;SDS011;11470;20.968;105.834;2023-04-15T16:12:27;104.85;;;60.08;;
22606;SDS011;11470;20.968;105.834;2023-04-15T16:17:34;99.30;;;61.13;;
22606;SDS011;11470;20.968;105.834;2023-04-15T16:22:49;95.75;;;59.53;;
22606;SDS011;11470;20.968;105.834;2023-04-15T16:27:54;99.85;;;58.97;;
22606;SDS011;11470;20.968;105.834;2023-04-15T16:33:13;108.22;;;65.50;;
22606;SDS011;11470;20.968;105.834;2023-04-15T16:43:24;94.60;;;56.47;;
22606;SDS011;11470;20.968;105.834;2023-04-15T16:53:34;85.93;;;49.25;;
22606;SDS011;11470;20.968;105.834;2023-04-15T16:58:40;98.82;;;55.33;;
22606;SDS011;11470;20.968;105.834;2023-04-15T17:03:45;88.93;;;53.47;;
22606;SDS011;11470;20.968;105.834;2023-04-15T17:08:52;90.65;;;53.45;;
22606;SDS011;11470;20.968;105.834;2023-04-15T17:19:02;87.32;;;53.17;;
22606;SDS011;11470;20.968;105.834;2023-04-15T17:24:07;96.25;;;54.80;;
22606;SDS011;11470;20.968;105.834;2023-04-15T17:29:13;94.73;;;57.17;;
22606;SDS011;11470;20.968;105.834;2023-04-15T17:34:18;98.83;;;55.97;;
22606;SDS011;11470;20.968;105.834;2023-04-15T17:39:24;99.15;;;57.03;;
22606;SDS011;11470;20.968;105.834;2023-04-15T17:49:35;102.45;;;54.95;;
22606;SDS011;11470;20.968;105.834;2023-04-15T17:59:46;91.30;;;51.33;;
22606;SDS011;11470;20.968;105.834;2023-04-15T18:04:51;84.38;;;49.97;;
22606;SDS011;11470;20.968;105.834;2023-04-15T18:09:59;94.80;;;53.80;;
22606;SDS011;11470;20.968;105.834;2023-04-15T18:15:05;103.45;;;56.13;;
22606;SDS011;11470;20.968;105.834;2023-04-15T18:20:12;89.45;;;52.80;;
22606;SDS011;11470;20.968;105.834;2023-04-15T18:25:18;95.38;;;53.53;;
22606;SDS011;11470;20.968;105.834;2023-04-15T18:30:24;90.70;;;53.03;;
22606;SDS011;11470;20.968;105.834;2023-04-15T18:35:30;90.95;;;53.00;;
22606;SDS011;11470;20.968;105.834;2023-04-15T18:40:37;86.40;;;52.35;;
22606;SDS011;11470;20.968;105.834;2023-04-15T18:45:43;84.07;;;51.17;;
22606;SDS011;11470;20.968;105.834;2023-04-15T18:50:48;80.40;;;50.40;;
22606;SDS011;11470;20.968;105.834;2023-04-15T18:55:56;105.63;;;58.42;;
22606;SDS011;11470;20.968;105.834;2023-04-15T19:01:05;102.45;;;59.15;;
22606;SDS011;11470;20.968;105.834;2023-04-15T19:06:13;94.32;;;57.33;;
22606;SDS011;11470;20.968;105.834;2023-04-15T19:11:19;93.32;;;56.75;;
22606;SDS011;11470;20.968;105.834;2023-04-15T19:16:24;81.05;;;50.35;;
22606;SDS011;11470;20.968;105.834;2023-04-15T19:21:30;75.47;;;48.05;;
22606;SDS011;11470;20.968;105.834;2023-04-15T19:26:36;80.28;;;49.50;;
22606;SDS011;11470;20.968;105.834;2023-04-15T19:31:42;78.25;;;50.40;;
22606;SDS011;11470;20.968;105.834;2023-04-15T19:36:47;67.25;;;42.80;;
22606;SDS011;11470;20.968;105.834;2023-04-15T19:41:53;61.50;;;34.22;;
22606;SDS011;11470;20.968;105.834;2023-04-15T19:46:59;62.42;;;36.92;;
22606;SDS011;11470;20.968;105.834;2023-04-15T19:52:04;59.80;;;32.83;;
22606;SDS011;11470;20.968;105.834;2023-04-15T19:57:10;61.77;;;39.07;;
22606;SDS011;11470;20.968;105.834;2023-04-15T20:02:16;66.85;;;39.22;;
22606;SDS011;11470;20.968;105.834;2023-04-15T20:12:26;71.07;;;42.42;;
22606;SDS011;11470;20.968;105.834;2023-04-15T20:17:52;71.67;;;43.63;;
22606;SDS011;11470;20.968;105.834;2023-04-15T20:22:57;79.47;;;50.13;;
22606;SDS011;11470;20.968;105.834;2023-04-15T20:28:03;74.47;;;46.43;;
22606;SDS011;11470;20.968;105.834;2023-04-15T20:33:09;69.13;;;44.30;;
22606;SDS011;11470;20.968;105.834;2023-04-15T20:38:14;82.45;;;47.72;;
22606;SDS011;11470;20.968;105.834;2023-04-15T20:43:20;70.57;;;44.47;;
22606;SDS011;11470;20.968;105.834;2023-04-15T20:48:26;69.88;;;45.83;;
22606;SDS011;11470;20.968;105.834;2023-04-15T20:58:37;72.85;;;44.15;;
22606;SDS011;11470;20.968;105.834;2023-04-15T21:03:42;72.93;;;45.43;;
22606;SDS011;11470;20.968;105.834;2023-04-15T21:08:49;64.78;;;41.65;;
22606;SDS011;11470;20.968;105.834;2023-04-15T21:13:55;68.53;;;43.92;;
22606;SDS011;11470;20.968;105.834;2023-04-15T21:19:01;67.65;;;43.85;;
22606;SDS011;11470;20.968;105.834;2023-04-15T21:24:06;71.85;;;43.80;;
22606;SDS011;11470;20.968;105.834;2023-04-15T21:29:12;93.67;;;50.13;;
22606;SDS011;11470;20.968;105.834;2023-04-15T21:34:17;68.75;;;45.58;;
22606;SDS011;11470;20.968;105.834;2023-04-15T21:39:23;76.90;;;46.27;;
22606;SDS011;11470;20.968;105.834;2023-04-15T21:44:28;67.93;;;43.13;;
22606;SDS011;11470;20.968;105.834;2023-04-15T21:49:34;66.45;;;42.42;;
22606;SDS011;11470;20.968;105.834;2023-04-15T21:54:39;75.22;;;43.60;;
22606;SDS011;11470;20.968;105.834;2023-04-15T21:59:45;72.88;;;45.63;;
22606;SDS011;11470;20.968;105.834;2023-04-15T22:04:50;74.88;;;46.13;;
22606;SDS011;11470;20.968;105.834;2023-04-15T22:09:56;72.47;;;44.22;;
22606;SDS011;11470;20.968;105.834;2023-04-15T22:15:01;66.03;;;44.10;;
22606;SDS011;11470;20.968;105.834;2023-04-15T22:20:08;65.65;;;41.50;;
22606;SDS011;11470;20.968;105.834;2023-04-15T22:25:14;65.35;;;43.35;;
22606;SDS011;11470;20.968;105.834;2023-04-15T22:30:19;74.90;;;47.23;;
22606;SDS011;11470;20.968;105.834;2023-04-15T22:35:24;64.75;;;41.85;;
22606;SDS011;11470;20.968;105.834;2023-04-15T22:40:30;72.90;;;46.95;;
22606;SDS011;11470;20.968;105.834;2023-04-15T22:45:36;73.85;;;44.50;;
22606;SDS011;11470;20.968;105.834;2023-04-15T22:50:42;65.83;;;41.27;;
22606;SDS011;11470;20.968;105.834;2023-04-15T22:55:47;60.28;;;40.72;;
22606;SDS011;11470;20.968;105.834;2023-04-15T23:00:54;75.53;;;44.22;;
22606;SDS011;11470;20.968;105.834;2023-04-15T23:05:59;70.88;;;45.05;;
22606;SDS011;11470;20.968;105.834;2023-04-15T23:11:05;70.38;;;42.28;;
22606;SDS011;11470;20.968;105.834;2023-04-15T23:16:11;67.38;;;41.67;;
22606;SDS011;11470;20.968;105.834;2023-04-15T23:21:16;72.60;;;43.47;;
22606;SDS011;11470;20.968;105.834;2023-04-15T23:26:22;67.77;;;43.00;;
22606;SDS011;11470;20.968;105.834;2023-04-15T23:31:28;71.90;;;45.33;;
22606;SDS011;11470;20.968;105.834;2023-04-15T23:36:33;70.22;;;43.67;;
22606;SDS011;11470;20.968;105.834;2023-04-15T23:46:44;65.47;;;42.38;;
22606;SDS011;11470;20.968;105.834;2023-04-15T23:51:50;63.97;;;41.72;;
